Time;durP1;ratioP1;P1;durP2;ratioP2;P2;SDS_P1;SDS_P2;PMS_P1;PMS_P2;Temp;Humidity;BMP_temperature;BMP_pressure;BME280_temperature;BME280_humidity;BME280_pressure;Samples;Min_cycle;Max_cycle;Signal;HPM_P1;HPM_P2
2023/07/12 00:01:22;;;;;;;8.38;3.00;;;;;;;21.58;72.64;100648.88;7393497;19;20022;-61
2023/07/12 00:03:49;;;;;;;8.25;3.03;;;;;;;21.62;71.99;100651.00;7393080;19;20047;-61
2023/07/12 00:06:19;;;;;;;8.27;2.95;;;;;;;21.62;72.28;100712.97;7391413;19;20022;-59
2023/07/12 00:08:47;;;;;;;8.35;3.15;;;;;;;21.53;72.58;100810.28;7392415;19;20022;-61
2023/07/12 00:11:21;;;;;;;6.13;3.17;;;;;;;21.38;73.18;100867.69;7394242;19;20055;-60
2023/07/12 00:13:54;;;;;;;5.43;2.72;;;;;;;21.34;73.23;100912.16;7393539;19;20022;-64
2023/07/12 00:16:33;;;;;;;8.60;3.08;;;;;;;21.37;73.33;100859.78;7394491;19;20019;-64
2023/07/12 00:19:02;;;;;;;9.07;3.92;;;;;;;21.37;73.53;100782.47;7394531;19;20036;-60
2023/07/12 00:21:31;;;;;;;10.68;3.42;;;;;;;21.40;73.21;100757.00;7394238;19;20031;-58
2023/07/12 00:24:00;;;;;;;8.23;2.78;;;;;;;21.42;73.43;100777.38;7393003;19;20024;-58
2023/07/12 00:26:34;;;;;;;7.85;2.38;;;;;;;21.40;73.39;100794.72;7390681;19;20018;-58
2023/07/12 00:29:03;;;;;;;8.77;3.00;;;;;;;21.33;74.12;100794.66;7394332;19;20035;-59
2023/07/12 00:31:33;;;;;;;9.65;3.28;;;;;;;21.31;75.36;100791.25;7394889;19;20022;-57
2023/07/12 00:34:00;;;;;;;12.18;3.20;;;;;;;21.28;75.78;100788.09;7393388;19;20088;-59
2023/07/12 00:36:31;;;;;;;11.40;3.13;;;;;;;21.21;75.94;100768.28;7394715;19;20520;-59
2023/07/12 00:39:01;;;;;;;6.15;2.70;;;;;;;21.15;75.97;100767.16;7394739;19;20022;-59
2023/07/12 00:41:56;;;;;;;8.27;2.78;;;;;;;21.02;76.23;100786.59;7394213;19;20055;-59
2023/07/12 00:44:45;;;;;;;6.78;2.42;;;;;;;20.98;76.30;100817.59;7392930;19;20532;-59
2023/07/12 00:47:14;;;;;;;8.57;2.20;;;;;;;21.06;76.34;100809.50;7391963;19;20081;-59
2023/07/12 00:49:45;;;;;;;5.53;2.13;;;;;;;21.15;76.16;100846.09;7393731;19;20022;-58
2023/07/12 00:52:15;;;;;;;8.73;2.78;;;;;;;21.13;75.94;100840.03;7394086;19;20014;-58
2023/07/12 00:54:53;;;;;;;8.93;3.42;;;;;;;21.09;77.02;100762.50;7390472;19;20523;-57
2023/07/12 00:57:23;;;;;;;9.13;3.17;;;;;;;21.03;77.94;100715.59;7392494;19;20014;-57
2023/07/12 00:59:58;;;;;;;8.18;2.85;;;;;;;21.14;77.39;100742.09;7394094;19;20052;-58
2023/07/12 01:02:26;;;;;;;7.15;2.47;;;;;;;21.01;77.25;100747.25;7391666;19;20364;-58
2023/07/12 01:04:58;;;;;;;8.15;2.45;;;;;;;20.98;77.00;100719.84;7389904;19;20018;-57
2023/07/12 01:07:29;;;;;;;7.88;2.30;;;;;;;20.98;77.35;100712.59;7389456;19;20014;-58
2023/07/12 01:09:57;;;;;;;5.78;2.50;;;;;;;20.97;77.62;100707.41;7393133;19;20018;-58
2023/07/12 01:12:24;;;;;;;5.10;1.80;;;;;;;20.98;77.41;100709.06;7393438;19;20015;-58
2023/07/12 01:14:52;;;;;;;5.32;1.63;;;;;;;21.01;77.10;100706.03;7389038;19;20018;-58
2023/07/12 01:17:21;;;;;;;4.75;1.65;;;;;;;20.96;76.73;100709.25;7393243;19;20042;-57
2023/07/12 01:19:49;;;;;;;4.82;1.60;;;;;;;21.00;76.71;100756.34;7392477;19;20015;-58
2023/07/12 01:22:16;;;;;;;4.03;1.50;;;;;;;20.99;76.87;100781.59;7392933;19;20022;-59
2023/07/12 01:24:43;;;;;;;12.35;6.65;;;;;;;;;;7391099;19;20052;-59
2023/07/12 01:27:15;;;;;;;9.35;5.03;;;;;;;21.13;76.36;100817.66;7392275;19;20011;-59
2023/07/12 01:29:42;;;;;;;7.25;3.67;;;;;;;21.18;76.35;100789.19;7392167;19;20014;-59
2023/07/12 01:32:10;;;;;;;9.35;4.63;;;;;;;21.18;77.02;100734.50;7391900;19;20476;-59
2023/07/12 01:34:38;;;;;;;10.18;4.40;;;;;;;21.20;77.16;100712.75;7390892;19;20010;-61
2023/07/12 01:37:05;;;;;;;8.32;3.80;;;;;;;21.21;76.87;100703.63;7394100;19;20022;-59
2023/07/12 01:39:33;;;;;;;9.07;4.00;;;;;;;21.22;76.83;100716.94;7391978;19;20022;-59
2023/07/12 01:42:01;;;;;;;11.18;4.40;;;;;;;21.10;77.44;100705.78;7391587;19;20018;-59
2023/07/12 01:44:28;;;;;;;9.25;4.38;;;;;;;21.16;77.17;100709.56;7391009;19;20359;-59
2023/07/12 01:46:56;;;;;;;7.95;3.28;;;;;;;21.21;77.40;100722.50;7388735;19;20007;-59
2023/07/12 01:49:23;;;;;;;7.65;3.97;;;;;;;21.01;77.84;100720.31;7390432;19;20018;-59
2023/07/12 01:51:51;;;;;;;8.60;4.47;;;;;;;20.92;78.11;100738.41;7391370;19;20349;-59
2023/07/12 01:54:18;;;;;;;9.63;5.00;;;;;;;20.87;78.57;100748.03;7389246;19;20018;-60
2023/07/12 01:56:46;;;;;;;11.55;5.95;;;;;;;20.92;78.52;100727.63;7390124;19;20014;-60
2023/07/12 01:59:13;;;;;;;8.23;4.30;;;;;;;20.90;78.34;100726.13;7390057;19;20018;-59
2023/07/12 02:01:40;;;;;;;9.13;4.10;;;;;;;20.96;77.83;100724.59;7390173;19;20051;-60
2023/07/12 02:04:08;;;;;;;8.23;4.47;;;;;;;20.85;78.73;100734.75;7388861;19;20019;-60
2023/07/12 02:06:35;;;;;;;8.88;4.60;;;;;;;20.90;77.97;100723.44;7389251;19;20023;-60
2023/07/12 02:09:03;;;;;;;11.13;4.93;;;;;;;20.84;78.64;100721.50;7391502;19;20014;-58
2023/07/12 02:11:30;;;;;;;9.40;4.85;;;;;;;20.83;78.95;100696.41;7389374;19;20035;-57
2023/07/12 02:13:58;;;;;;;10.98;4.50;;;;;;;21.01;78.30;100665.63;7390315;19;20023;-60
2023/07/12 02:16:25;;;;;;;10.38;4.32;;;;;;;21.14;77.98;100669.38;7389778;19;20405;-60
2023/07/12 02:18:52;;;;;;;8.85;4.07;;;;;;;21.13;78.23;100661.47;7390461;19;20022;-60
2023/07/12 02:21:20;;;;;;;9.82;4.20;;;;;;;21.18;77.69;100648.31;7388677;19;20540;-60
2023/07/12 02:23:47;;;;;;;7.25;3.97;;;;;;;21.15;77.54;100643.28;7390355;19;20029;-60
2023/07/12 02:26:14;;;;;;;6.90;3.30;;;;;;;21.04;78.49;100625.72;7386948;19;20015;-60
2023/07/12 02:28:42;;;;;;;7.47;3.92;;;;;;;21.10;78.42;100619.59;7389831;19;20034;-60
2023/07/12 02:31:20;;;;;;;6.85;3.53;;;;;;;21.16;78.36;100608.06;7390786;19;20047;-60
2023/07/12 02:33:48;;;;;;;6.75;3.20;;;;;;;21.09;78.58;100590.13;7390310;19;20018;-60
2023/07/12 02:36:18;;;;;;;9.32;3.67;;;;;;;21.13;77.61;100578.81;7390538;19;20015;-60
2023/07/12 02:38:46;;;;;;;7.10;3.33;;;;;;;21.07;77.94;100571.50;7390300;19;20058;-60
2023/07/12 02:41:16;;;;;;;5.88;2.90;;;;;;;20.99;78.13;100578.84;7388656;19;20015;-61
2023/07/12 02:43:44;;;;;;;6.10;3.25;;;;;;;20.81;79.09;100577.31;7389961;19;20023;-61
2023/07/12 02:46:12;;;;;;;5.53;2.80;;;;;;;20.93;78.73;100562.38;7386639;19;20471;-60
2023/07/12 02:48:40;;;;;;;7.43;3.00;;;;;;;21.00;78.35;100573.25;7388850;19;20014;-60
2023/07/12 02:51:07;;;;;;;5.80;2.75;;;;;;;20.83;78.84;100585.19;7389922;19;20134;-60
2023/07/12 02:53:35;;;;;;;5.88;2.38;;;;;;;20.79;79.25;100592.81;7388091;19;20026;-60
2023/07/12 02:56:06;;;;;;;5.53;2.22;;;;;;;20.82;78.55;100580.84;7389476;19;20048;-59
2023/07/12 02:58:34;;;;;;;5.35;2.25;;;;;;;20.96;78.53;100600.72;7388412;19;20020;-59
2023/07/12 03:01:02;;;;;;;5.07;2.10;;;;;;;20.83;78.85;100612.94;7389996;19;20094;-59
2023/07/12 03:03:30;;;;;;;5.20;2.60;;;;;;;20.83;78.48;100622.88;7388682;19;20015;-59
2023/07/12 03:06:05;;;;;;;6.20;2.20;;;;;;;20.90;78.31;100654.28;7388292;19;20090;-59
2023/07/12 03:08:33;;;;;;;5.30;2.42;;;;;;;20.87;78.44;100665.44;7389285;19;20018;-59
2023/07/12 03:11:02;;;;;;;6.32;2.90;;;;;;;20.95;77.97;100645.69;7389419;19;20022;-59
2023/07/12 03:13:30;;;;;;;5.97;2.42;;;;;;;20.90;78.01;100642.69;7389638;19;20495;-59
2023/07/12 03:15:58;;;;;;;5.28;2.45;;;;;;;20.90;78.46;100627.34;7388906;19;20014;-59
2023/07/12 03:18:25;;;;;;;4.40;2.50;;;;;;;21.01;78.08;100620.69;7389574;19;20019;-60
2023/07/12 03:20:58;;;;;;;6.57;2.25;;;;;;;20.90;78.42;100626.53;7389085;19;20038;-58
2023/07/12 03:23:25;;;;;;;4.05;2.30;;;;;;;20.87;79.13;100629.56;7388616;19;20047;-60
2023/07/12 03:25:52;;;;;;;5.80;2.40;;;;;;;20.97;78.75;100657.09;7387590;19;20011;-59
2023/07/12 03:28:19;;;;;;;5.07;2.53;;;;;;;20.99;78.63;100667.69;7387108;19;20018;-59
2023/07/12 03:31:06;;;;;;;6.57;3.30;;;;;;;21.17;78.36;100668.16;7392415;19;20019;-59
2023/07/12 03:33:34;;;;;;;7.68;3.17;;;;;;;21.09;78.61;100690.63;7396086;19;20146;-60
2023/07/12 03:36:04;;;;;;;5.07;3.15;;;;;;;20.99;79.13;100735.84;7396240;19;20035;-61
2023/07/12 03:38:32;;;;;;;6.50;3.15;;;;;;;20.97;79.16;100750.50;7395605;19;20044;-61
2023/07/12 03:41:05;;;;;;;6.47;2.80;;;;;;;21.00;78.95;100758.22;7395991;19;20043;-59
2023/07/12 03:43:33;;;;;;;5.07;2.83;;;;;;;21.00;78.96;100767.13;7395490;19;20081;-60
2023/07/12 03:46:02;;;;;;;5.03;2.20;;;;;;;20.98;78.60;100784.47;7394510;19;20015;-60
2023/07/12 03:48:30;;;;;;;4.60;2.17;;;;;;;20.96;78.75;100791.91;7394290;19;20022;-60
2023/07/12 03:50:57;;;;;;;4.13;2.00;;;;;;;20.96;78.54;100781.97;7395706;19;20119;-59
2023/07/12 03:53:26;;;;;;;4.38;2.28;;;;;;;20.97;79.08;100774.72;7395129;19;20039;-60
2023/07/12 03:56:03;;;;;;;3.22;1.80;;;;;;;20.99;78.33;100770.84;7393101;19;20019;-60
2023/07/12 03:58:34;;;;;;;4.38;1.75;;;;;;;20.90;78.73;100767.34;7395326;19;20019;-60
2023/07/12 04:01:04;;;;;;;3.30;1.75;;;;;;;20.90;78.56;100758.44;7395796;19;20014;-59
2023/07/12 04:03:32;;;;;;;5.72;2.05;;;;;;;20.84;78.22;100745.72;7395403;19;20048;-60
2023/07/12 04:06:03;;;;;;;4.07;2.00;;;;;;;20.80;78.58;100739.84;7393796;19;20022;-59
2023/07/12 04:08:31;;;;;;;5.28;2.30;;;;;;;20.85;78.21;100732.06;7393275;19;20052;-59
2023/07/12 04:10:58;;;;;;;4.50;2.30;;;;;;;20.77;78.86;100737.53;7395355;19;20030;-60
2023/07/12 04:13:26;;;;;;;5.13;2.40;;;;;;;20.83;77.84;100736.78;7394519;19;20062;-61
2023/07/12 04:15:56;;;;;;;4.13;2.38;;;;;;;20.88;77.83;100736.25;7395064;19;20020;-60
2023/07/12 04:18:25;;;;;;;4.25;2.60;;;;;;;20.85;78.12;100742.00;7394849;19;20039;-60
2023/07/12 04:20:54;;;;;;;4.57;2.50;;;;;;;20.87;78.09;100753.41;7393344;19;20014;-60
2023/07/12 04:23:21;;;;;;;5.47;2.85;;;;;;;20.81;77.96;100754.16;7394037;19;20022;-61
2023/07/12 04:25:57;;;;;;;4.85;2.60;;;;;;;20.90;77.83;100747.66;7390006;19;20022;-60
2023/07/12 04:28:25;;;;;;;6.05;2.70;;;;;;;20.78;77.86;100747.25;7394424;19;20107;-59
2023/07/12 04:30:53;;;;;;;4.68;2.58;;;;;;;20.68;77.98;100757.41;7393085;19;20039;-60
2023/07/12 04:33:21;;;;;;;7.15;2.60;;;;;;;20.78;77.94;100765.28;7392234;19;20732;-61
2023/07/12 04:35:49;;;;;;;5.35;2.70;;;;;;;20.72;77.79;100785.69;7392091;19;20035;-61
2023/07/12 04:38:16;;;;;;;4.60;2.50;;;;;;;20.69;77.65;100807.56;7393861;19;20047;-61
2023/07/12 04:40:43;;;;;;;6.07;2.75;;;;;;;20.79;77.06;100818.91;7393876;19;20031;-61
2023/07/12 04:43:10;;;;;;;5.28;2.70;;;;;;;20.79;77.11;100818.06;7393758;19;20015;-61
2023/07/12 04:45:38;;;;;;;4.78;2.58;;;;;;;20.78;76.87;100814.56;7390940;19;20047;-58
2023/07/12 04:48:06;;;;;;;5.63;2.80;;;;;;;20.80;76.71;100793.69;7392339;19;20086;-60
2023/07/12 04:50:34;;;;;;;5.50;2.67;;;;;;;20.90;76.15;100782.66;7393956;19;20018;-59
2023/07/12 04:53:03;;;;;;;5.40;2.60;;;;;;;20.81;76.42;100799.91;7393537;19;20594;-61
2023/07/12 04:55:30;;;;;;;6.32;2.50;;;;;;;20.67;76.73;100823.03;7390843;19;20043;-60
2023/07/12 04:57:58;;;;;;;5.97;2.70;;;;;;;20.61;77.07;100832.66;7393253;19;20078;-61
2023/07/12 05:00:26;;;;;;;6.55;2.63;;;;;;;20.68;76.59;100827.38;7393614;19;20035;-61
2023/07/12 05:02:54;;;;;;;9.40;2.90;;;;;;;20.54;76.53;100831.69;7393071;19;20486;-62
2023/07/12 05:05:22;;;;;;;5.47;2.53;;;;;;;20.53;75.98;100830.03;7389239;19;20022;-62
2023/07/12 05:07:49;;;;;;;5.38;2.70;;;;;;;20.60;76.01;100832.81;7390086;19;20039;-62
2023/07/12 05:10:17;;;;;;;5.60;2.38;;;;;;;20.63;75.41;100801.03;7392986;19;20693;-61
2023/07/12 05:12:45;;;;;;;4.78;2.50;;;;;;;20.74;74.01;100798.94;7392999;19;20018;-62
2023/07/12 05:15:12;;;;;;;2.92;1.73;;;;;;;20.61;74.40;100772.63;7390752;19;20014;-61
2023/07/12 05:17:40;;;;;;;4.78;2.30;;;;;;;20.61;74.93;100761.88;7391350;19;20096;-62
2023/07/12 05:20:10;;;;;;;4.32;2.20;;;;;;;20.60;74.81;100755.63;7392614;19;20043;-62
2023/07/12 05:22:38;;;;;;;5.95;2.38;;;;;;;20.55;75.10;100735.66;7392927;19;20600;-62
2023/07/12 05:25:06;;;;;;;6.30;2.15;;;;;;;20.62;74.66;100752.78;7390281;19;20048;-61
2023/07/12 05:27:33;;;;;;;6.53;2.30;;;;;;;20.58;74.72;100744.22;7391080;19;20015;-61
2023/07/12 05:30:01;;;;;;;4.30;2.10;;;;;;;20.62;74.13;100724.00;7392011;19;20015;-61
2023/07/12 05:32:28;;;;;;;5.45;2.10;;;;;;;20.65;74.02;100712.88;7392086;19;20014;-62
2023/07/12 05:34:56;;;;;;;5.40;2.50;;;;;;;20.58;74.70;100727.25;7388608;19;20019;-61
2023/07/12 05:37:23;;;;;;;6.28;2.92;;;;;;;20.55;74.90;100743.72;7393732;19;20047;-61
2023/07/12 05:39:57;;;;;;;6.25;2.45;;;;;;;20.62;74.45;100788.59;7389850;19;20019;-61
2023/07/12 05:42:27;;;;;;;5.20;2.17;;;;;;;20.71;74.11;100802.00;7392566;19;20022;-61
2023/07/12 05:44:54;;;;;;;4.72;2.10;;;;;;;20.84;73.63;100799.56;7389641;19;20503;-62
2023/07/12 05:47:22;;;;;;;6.03;2.47;;;;;;;20.74;74.00;100836.63;7390753;19;20015;-60
2023/07/12 05:49:49;;;;;;;6.20;2.25;;;;;;;20.73;74.10;100834.97;7391482;19;20011;-60
2023/07/12 05:52:16;;;;;;;5.07;2.40;;;;;;;20.67;74.01;100852.63;7389378;19;20022;-61
2023/07/12 05:54:43;;;;;;;4.72;2.50;;;;;;;20.64;74.02;100852.97;7389883;19;20021;-61
2023/07/12 05:57:11;;;;;;;7.07;2.55;;;;;;;20.68;74.23;100843.53;7391503;19;20053;-60
2023/07/12 05:59:39;;;;;;;5.47;2.30;;;;;;;20.75;73.94;100836.44;7391172;19;20042;-60
2023/07/12 06:02:11;;;;;;;5.28;2.58;;;;;;;20.93;73.69;100838.84;7391259;19;20035;-60
2023/07/12 06:04:38;;;;;;;7.18;2.90;;;;;;;20.97;73.35;100840.19;7390420;19;20023;-60
2023/07/12 06:07:07;;;;;;;5.93;2.50;;;;;;;20.93;73.51;100833.47;7389694;19;20014;-60
2023/07/12 06:09:34;;;;;;;6.00;2.90;;;;;;;20.82;73.22;100826.63;7390475;19;20014;-59
2023/07/12 06:12:01;;;;;;;4.88;2.42;;;;;;;20.72;74.01;100809.03;7389437;19;20018;-59
2023/07/12 06:14:29;;;;;;;5.53;2.50;;;;;;;20.78;73.28;100811.03;7389885;19;20043;-60
2023/07/12 06:16:56;;;;;;;5.03;2.45;;;;;;;20.87;72.32;100818.88;7388854;19;20047;-60
2023/07/12 06:19:24;;;;;;;5.88;2.60;;;;;;;21.02;71.88;100823.47;7391065;19;20051;-60
2023/07/12 06:21:52;;;;;;;5.47;2.45;;;;;;;20.94;71.76;100852.13;7390689;19;20022;-60
2023/07/12 06:24:19;;;;;;;5.22;2.40;;;;;;;20.74;71.69;100826.69;7387889;19;20022;-59
2023/07/12 06:26:47;;;;;;;7.18;2.58;;;;;;;20.68;72.49;100843.53;7388643;19;20133;-58
2023/07/12 06:29:14;;;;;;;8.00;2.38;;;;;;;20.61;72.28;100847.97;7390639;19;20018;-60
2023/07/12 06:31:43;;;;;;;5.78;2.72;;;;;;;20.43;72.52;100853.56;7389936;19;20026;-61
2023/07/12 06:34:12;;;;;;;5.70;2.50;;;;;;;20.25;72.95;100864.56;7390238;19;20023;-60
2023/07/12 06:36:40;;;;;;;6.97;2.70;;;;;;;20.24;73.03;100873.66;7390991;19;20056;-61
2023/07/12 06:39:07;;;;;;;6.47;2.50;;;;;;;20.43;72.45;100865.16;7389989;19;20028;-61
2023/07/12 06:41:35;;;;;;;5.60;2.53;;;;;;;20.54;71.82;100869.38;7390026;19;20025;-61
2023/07/12 06:44:02;;;;;;;6.75;2.75;;;;;;;20.68;71.60;100859.69;7390170;19;20029;-62
2023/07/12 06:46:29;;;;;;;7.43;3.00;;;;;;;20.62;71.63;100866.63;7388298;19;20040;-62
2023/07/12 06:48:57;;;;;;;6.15;2.20;;;;;;;20.48;71.50;100872.72;7389740;19;20018;-62
2023/07/12 06:51:24;;;;;;;6.70;2.90;;;;;;;20.31;71.54;100863.88;7389637;19;20487;-60
2023/07/12 06:53:52;;;;;;;6.45;2.33;;;;;;;20.32;71.37;100864.72;7389055;19;20014;-61
2023/07/12 06:56:19;;;;;;;6.65;2.60;;;;;;;20.33;71.10;100874.44;7389105;19;20078;-60
2023/07/12 06:58:46;;;;;;;8.00;2.95;;;;;;;20.47;71.37;100881.81;7389679;19;20501;-61
2023/07/12 07:01:14;;;;;;;5.30;2.40;;;;;;;20.34;71.59;100882.38;7389260;19;20018;-60
2023/07/12 07:03:42;;;;;;;5.82;2.50;;;;;;;20.38;71.15;100881.00;7389737;19;20014;-61
2023/07/12 07:06:09;;;;;;;5.57;2.50;;;;;;;20.42;70.53;100874.25;7392374;19;20686;-61
2023/07/12 07:08:36;;;;;;;6.07;2.50;;;;;;;20.38;70.69;100886.38;7394081;19;20022;-61
2023/07/12 07:11:04;;;;;;;7.57;2.50;;;;;;;20.47;70.27;100876.41;7396909;19;20090;-61
2023/07/12 07:13:31;;;;;;;5.03;2.47;;;;;;;20.65;69.98;100878.91;7396891;19;20039;-60
2023/07/12 07:15:58;;;;;;;8.75;2.60;;;;;;;20.64;69.96;100893.34;7392790;19;20683;-60
2023/07/12 07:18:26;;;;;;;5.90;2.22;;;;;;;20.69;70.25;100902.59;7396541;19;20014;-60
2023/07/12 07:20:53;;;;;;;5.70;2.30;;;;;;;20.65;69.30;100920.09;7396210;19;20122;-60
2023/07/12 07:23:20;;;;;;;7.38;2.55;;;;;;;20.72;68.48;100908.63;7396392;19;20035;-60
2023/07/12 07:25:48;;;;;;;5.43;2.30;;;;;;;20.83;68.37;100909.06;7392750;19;20337;-60
2023/07/12 07:28:15;;;;;;;6.10;2.22;;;;;;;20.86;68.16;100899.81;7393790;19;20350;-60
2023/07/12 07:30:43;;;;;;;9.38;2.75;;;;;;;20.96;68.07;100905.00;7395918;19;20491;-61
2023/07/12 07:33:10;;;;;;;7.25;2.38;;;;;;;21.00;68.12;100906.31;7395866;19;20015;-59
2023/07/12 07:35:37;;;;;;;6.80;3.10;;;;;;;21.04;67.48;100905.78;7393188;19;20416;-59
2023/07/12 07:38:05;;;;;;;6.82;2.40;;;;;;;21.24;66.60;100922.28;7400441;19;20022;-59
2023/07/12 07:40:32;;;;;;;5.97;2.28;;;;;;;21.27;66.52;100932.72;7394874;19;20505;-58
2023/07/12 07:43:01;;;;;;;7.30;2.58;;;;;;;21.25;66.18;100937.44;7395720;19;20018;-59
2023/07/12 07:45:28;;;;;;;7.43;2.58;;;;;;;21.12;66.20;100946.13;7392991;19;20073;-60
2023/07/12 07:47:55;;;;;;;7.45;2.65;;;;;;;21.07;66.58;100947.66;7393785;19;20030;-59
2023/07/12 07:50:22;;;;;;;6.72;2.33;;;;;;;21.08;66.34;100941.25;7395591;19;20145;-59
2023/07/12 07:52:53;;;;;;;8.10;2.58;;;;;;;21.04;67.06;100943.47;7394626;19;20018;-60
2023/07/12 07:55:21;;;;;;;9.23;2.80;;;;;;;21.30;66.50;100935.06;7393333;19;20023;-60
2023/07/12 07:57:49;;;;;;;7.05;2.50;;;;;;;21.53;65.80;100935.09;7395475;19;20023;-60
2023/07/12 08:00:16;;;;;;;6.30;2.50;;;;;;;21.51;65.65;100934.44;7394819;19;20027;-61
2023/07/12 08:02:44;;;;;;;8.50;2.40;;;;;;;21.38;66.42;100937.72;7395255;19;20022;-60
2023/07/12 08:05:14;;;;;;;6.97;2.20;;;;;;;21.29;66.31;100933.41;7390008;19;20625;-59
2023/07/12 08:07:46;;;;;;;8.25;2.45;;;;;;;21.44;65.80;100929.94;7391741;19;20011;-58
2023/07/12 08:10:17;;;;;;;8.40;2.72;;;;;;;21.72;66.03;100936.47;7394968;19;20018;-59
2023/07/12 08:12:46;;;;;;;8.80;2.47;;;;;;;21.87;65.10;100940.03;7394646;19;20018;-59
2023/07/12 08:15:13;;;;;;;6.75;2.50;;;;;;;21.74;65.99;100929.03;7392258;19;20076;-58
2023/07/12 08:17:40;;;;;;;8.25;2.70;;;;;;;21.73;66.09;100946.22;7396223;19;20523;-58
2023/07/12 08:20:08;;;;;;;6.57;2.35;;;;;;;21.75;65.56;100938.81;7394849;19;20014;-58
2023/07/12 08:22:35;;;;;;;10.90;2.78;;;;;;;21.75;65.50;100944.19;7394041;19;20073;-58
2023/07/12 08:25:03;;;;;;;8.45;2.33;;;;;;;21.79;64.10;100952.75;7392043;19;20082;-58
2023/07/12 08:27:30;;;;;;;6.55;2.50;;;;;;;21.95;62.95;100952.63;7392617;19;20030;-58
2023/07/12 08:29:59;;;;;;;8.75;3.08;;;;;;;21.75;62.86;100962.19;7394416;19;20019;-58
2023/07/12 08:32:28;;;;;;;8.15;2.42;;;;;;;21.73;63.78;100969.66;7392734;19;20018;-58
2023/07/12 08:34:56;;;;;;;9.48;2.78;;;;;;;21.76;63.46;100972.00;7392463;19;20041;-58
2023/07/12 08:37:25;;;;;;;9.93;2.92;;;;;;;21.80;63.10;100978.69;7393726;19;20018;-59
2023/07/12 08:39:52;;;;;;;7.38;2.65;;;;;;;21.95;62.64;100974.19;7391264;19;20026;-59
2023/07/12 08:42:30;;;;;;;12.88;2.55;;;;;;;22.24;62.63;100986.91;7393248;19;20039;-59
2023/07/12 08:45:01;;;;;;;7.10;2.50;;;;;;;22.02;62.30;100980.53;7395184;19;20022;-59
2023/07/12 08:47:32;;;;;;;8.05;2.63;;;;;;;22.05;62.36;100976.59;7390861;19;20018;-59
2023/07/12 08:49:59;;;;;;;7.45;3.00;;;;;;;21.92;62.48;100971.84;7395318;19;20031;-59
2023/07/12 08:52:33;;;;;;;9.50;2.88;;;;;;;21.96;62.47;100975.84;7393521;19;20018;-62
2023/07/12 08:55:01;;;;;;;10.98;3.33;;;;;;;21.92;62.77;100976.41;7391416;19;20094;-58
2023/07/12 08:57:30;;;;;;;11.18;2.95;;;;;;;21.79;62.79;100983.25;7393815;19;20014;-59
2023/07/12 09:00:05;;;;;;;11.05;2.80;;;;;;;21.68;62.96;100972.91;7392511;19;20015;-59
2023/07/12 09:02:34;;;;;;;8.65;3.00;;;;;;;21.66;62.57;100970.38;7392109;19;20022;-59
2023/07/12 09:05:24;;;;;;;8.98;2.33;;;;;;;21.97;61.60;100977.53;7390734;19;20018;-59
2023/07/12 09:08:29;;;;;;;9.52;3.45;;;;;;;22.09;61.10;100989.56;7392049;19;20026;-58
2023/07/12 09:10:57;;;;;;;10.27;3.67;;;;;;;22.20;60.64;100974.81;7390830;19;20019;-58
2023/07/12 09:13:36;;;;;;;8.75;3.10;;;;;;;22.35;60.54;100985.63;7392470;19;20492;-58
2023/07/12 09:16:19;;;;;;;8.63;2.67;;;;;;;22.14;60.62;100971.00;7388281;19;20060;-59
2023/07/12 09:18:50;;;;;;;8.40;2.67;;;;;;;22.03;61.21;100974.09;7392675;19;20022;-59
2023/07/12 09:21:24;;;;;;;7.22;2.83;;;;;;;22.02;61.13;100972.44;7390166;19;20400;-59
2023/07/12 09:23:53;;;;;;;9.93;3.10;;;;;;;21.99;60.68;100972.78;7392339;19;20022;-58
2023/07/12 09:26:25;;;;;;;10.63;3.13;;;;;;;22.08;60.43;100976.25;7391021;19;20026;-59
2023/07/12 09:28:57;;;;;;;9.52;2.80;;;;;;;22.20;59.41;100969.41;7388810;19;20354;-58
2023/07/12 09:31:29;;;;;;;10.05;3.47;;;;;;;22.43;58.52;100972.03;7391850;19;20030;-59
2023/07/12 09:34:03;;;;;;;10.68;2.80;;;;;;;22.46;58.09;100977.06;7391679;19;20023;-59
2023/07/12 09:36:35;;;;;;;8.98;2.80;;;;;;;22.30;59.02;100977.25;7392267;19;20077;-59
2023/07/12 09:39:05;;;;;;;7.13;2.88;;;;;;;22.32;58.71;100981.47;7390601;19;20439;-59
2023/07/12 09:41:32;;;;;;;8.88;2.70;;;;;;;22.35;59.12;100974.81;7390955;19;20031;-58
2023/07/12 09:44:00;;;;;;;8.93;2.97;;;;;;;22.49;58.16;100989.38;7390813;19;20018;-58
2023/07/12 09:46:31;;;;;;;6.53;2.67;;;;;;;22.24;58.45;100976.13;7391310;19;20086;-58
2023/07/12 09:49:13;;;;;;;7.03;3.00;;;;;;;22.38;58.06;100996.06;7390584;19;20018;-59
2023/07/12 09:51:49;;;;;;;7.93;2.58;;;;;;;22.56;57.77;100985.75;7391068;19;20039;-59
2023/07/12 09:54:40;;;;;;;11.52;2.53;;;;;;;22.67;56.77;100992.53;7391410;19;20047;-59
2023/07/12 09:57:15;;;;;;;6.90;2.50;;;;;;;22.92;55.60;100997.66;7389501;19;20018;-59
2023/07/12 10:00:02;;;;;;;6.13;2.42;;;;;;;22.91;54.77;101004.06;7390130;19;20645;-59
2023/07/12 10:02:43;;;;;;;7.38;2.50;;;;;;;22.50;56.81;100997.28;7390772;19;20018;-59
2023/07/12 10:05:20;;;;;;;12.18;2.80;;;;;;;22.73;56.02;100996.34;7391006;19;20566;-59
2023/07/12 10:07:48;;;;;;;5.90;2.35;;;;;;;22.76;55.02;101002.22;7392148;19;20015;-58
2023/07/12 10:10:41;;;;;;;9.73;2.50;;;;;;;22.65;53.75;100997.28;7391384;19;20487;-59
2023/07/12 10:13:44;;;;;;;8.15;2.22;;;;;;;22.59;55.58;100998.88;7390531;19;20018;-59
2023/07/12 10:16:18;;;;;;;10.88;2.30;;;;;;;22.43;56.53;100990.94;7388983;19;20019;-59
2023/07/12 10:18:48;;;;;;;9.75;2.72;;;;;;;22.44;56.68;100998.03;7390816;19;20018;-58
2023/07/12 10:21:21;;;;;;;9.80;2.58;;;;;;;22.68;55.98;100998.78;7389841;19;20011;-60
2023/07/12 10:23:53;;;;;;;7.60;2.70;;;;;;;22.78;55.49;101002.00;7390632;19;20040;-59
2023/07/12 10:26:20;;;;;;;6.38;2.28;;;;;;;22.85;56.08;100994.84;7390380;19;20019;-58
2023/07/12 10:28:51;;;;;;;7.25;2.75;;;;;;;23.06;55.42;101007.63;7389130;19;20023;-58
2023/07/12 10:31:28;;;;;;;8.32;2.60;;;;;;;23.05;54.54;101003.25;7389863;19;20015;-59
2023/07/12 10:34:14;;;;;;;8.68;2.50;;;;;;;23.09;53.33;100991.88;7390434;19;20049;-58
2023/07/12 10:36:43;;;;;;;10.40;2.60;;;;;;;23.01;54.26;101010.03;7391502;19;20023;-58
2023/07/12 10:39:10;;;;;;;8.23;2.47;;;;;;;23.05;53.82;101012.19;7393249;19;20010;-58
2023/07/12 10:41:48;;;;;;;7.32;2.30;;;;;;;22.94;53.67;101012.69;7397269;19;20018;-58
2023/07/12 10:44:21;;;;;;;7.03;2.40;;;;;;;22.99;53.96;101012.09;7397128;19;20052;-58
2023/07/12 10:46:56;;;;;;;7.38;2.50;;;;;;;23.08;53.63;101017.19;7397060;19;20014;-58
2023/07/12 10:49:44;;;;;;;5.95;2.08;;;;;;;23.08;53.61;101016.38;7395171;19;20011;-58
2023/07/12 10:52:11;;;;;;;5.53;2.20;;;;;;;23.27;53.98;101009.53;7397365;19;20018;-58
2023/07/12 10:54:51;;;;;;;6.68;2.40;;;;;;;23.17;52.84;101014.41;7396381;19;20018;-58
2023/07/12 10:57:19;;;;;;;6.38;2.13;;;;;;;23.06;53.65;101013.88;7396956;19;20018;-58
2023/07/12 10:59:46;;;;;;;5.60;2.30;;;;;;;23.21;54.03;101021.13;7397634;19;20018;-58
2023/07/12 11:02:25;;;;;;;4.72;2.03;;;;;;;23.29;53.18;101029.09;7397422;19;20022;-60
2023/07/12 11:04:52;;;;;;;6.75;2.53;;;;;;;23.22;53.55;101017.38;7395237;19;20056;-60
2023/07/12 11:07:20;;;;;;;8.07;2.67;;;;;;;23.25;52.63;101020.53;7395688;19;20099;-60
2023/07/12 11:09:47;;;;;;;7.07;2.50;;;;;;;23.23;52.21;101021.75;7393941;19;20022;-60
2023/07/12 11:12:25;;;;;;;10.02;2.47;;;;;;;23.33;51.91;101030.41;7397665;19;20019;-60
2023/07/12 11:15:04;;;;;;;6.55;2.70;;;;;;;23.35;52.77;101025.63;7395050;19;20021;-58
2023/07/12 11:18:09;;;;;;;6.10;2.60;;;;;;;23.33;51.33;101031.25;7397396;19;20015;-58
2023/07/12 11:21:04;;;;;;;6.78;2.58;;;;;;;23.23;51.92;101029.84;7396596;19;20047;-59
2023/07/12 11:23:38;;;;;;;6.10;2.58;;;;;;;23.33;52.49;101031.25;7397498;19;20022;-59
2023/07/12 11:26:28;;;;;;;11.05;2.80;;;;;;;23.44;52.36;101031.78;7392548;19;20126;-58
2023/07/12 11:29:26;;;;;;;7.82;2.80;;;;;;;23.48;52.25;101031.19;7395206;19;20015;-59
2023/07/12 11:32:09;;;;;;;6.38;2.38;;;;;;;23.38;52.05;101044.19;7395482;19;20018;-60
2023/07/12 11:34:40;;;;;;;8.15;2.65;;;;;;;23.28;52.16;101032.84;7395194;19;20019;-60
2023/07/12 11:37:28;;;;;;;8.68;2.70;;;;;;;23.53;51.93;101031.47;7396841;19;20082;-58
2023/07/12 11:39:55;;;;;;;8.52;2.80;;;;;;;23.49;51.76;101027.47;7396043;19;20047;-60